Time;durP1;ratioP1;P1;durP2;ratioP2;P2;SDS_P1;SDS_P2;PMS_P1;PMS_P2;Temp;Humidity;BMP_temperature;BMP_pressure;BME280_temperature;BME280_humidity;BME280_pressure;Samples;Min_cycle;Max_cycle;Signal;HPM_P1;HPM_P2
2023/07/11 00:01:37;;;;;;;6.90;6.20;;;;;;;15.14;91.50;97410.38;110408;1239;68392;-68
2023/07/11 00:04:06;;;;;;;6.50;5.80;;;;;;;15.08;99.23;97410.71;110387;1238;59631;-68
2023/07/11 00:06:36;;;;;;;8.50;6.40;;;;;;;15.01;97.69;97405.17;110486;1241;59661;-68
2023/07/11 00:09:05;;;;;;;6.60;5.50;;;;;;;14.95;98.77;97406.61;110613;1238;71328;-68
2023/07/11 00:11:34;;;;;;;6.30;5.20;;;;;;;14.93;99.56;97399.29;110487;1241;69720;-68
2023/07/11 00:14:04;;;;;;;7.70;5.80;;;;;;;14.91;99.95;97400.16;110423;1241;68488;-69
2023/07/11 00:16:34;;;;;;;6.90;5.60;;;;;;;14.88;100.00;97400.25;110456;1241;59647;-68
2023/07/11 00:19:03;;;;;;;7.10;6.10;;;;;;;14.86;99.81;97403.57;110589;1242;59702;-68
2023/07/11 00:21:32;;;;;;;6.80;6.10;;;;;;;14.85;99.78;97398.97;110536;1241;71435;-68
2023/07/11 00:24:06;;;;;;;9.60;6.50;;;;;;;14.83;100.00;97400.20;110362;1241;69298;-68
2023/07/11 00:26:35;;;;;;;9.50;6.60;;;;;;;14.81;100.00;97395.82;110336;1248;69752;-70
2023/07/11 00:29:20;;;;;;;8.40;5.90;;;;;;;14.81;100.00;97404.23;110368;1241;59729;-70
2023/07/11 00:31:51;;;;;;;7.90;5.90;;;;;;;14.81;99.76;97409.14;110527;1238;59674;-68
2023/07/11 00:34:20;;;;;;;;;;;;;;;14.82;99.46;97404.87;110529;1238;71522;-69
2023/07/11 00:36:52;;;;;;;5.70;5.00;;;;;;;14.83;94.54;97399.68;110529;1241;69272;-68
2023/07/11 00:39:22;;;;;;;6.20;5.00;;;;;;;14.85;92.65;97398.59;110264;1242;69187;-68
2023/07/11 00:41:52;;;;;;;6.70;5.60;;;;;;;14.87;92.58;97400.05;110315;1241;59732;-68
2023/07/11 00:44:25;;;;;;;6.90;6.20;;;;;;;14.87;93.45;97398.23;110451;1242;59728;-67
2023/07/11 00:46:56;;;;;;;8.60;6.10;;;;;;;14.85;93.70;97397.36;110425;1242;70643;-69
2023/07/11 00:49:27;;;;;;;6.60;5.30;;;;;;;14.82;93.92;97395.42;110372;1241;68473;-69
2023/07/11 00:52:02;;;;;;;6.40;5.10;;;;;;;14.78;94.49;97393.65;110360;1239;69846;-69
2023/07/11 00:54:36;;;;;;;6.60;4.80;;;;;;;14.73;94.75;97393.02;110334;1241;59692;-68
2023/07/11 00:57:11;;;;;;;6.20;5.20;;;;;;;14.70;96.99;97394.71;110360;1241;59672;-68
2023/07/11 00:59:42;;;;;;;6.10;5.00;;;;;;;14.67;96.70;97388.50;110510;1242;71475;-68
2023/07/11 01:02:23;;;;;;;7.00;4.70;;;;;;;14.64;98.66;97388.18;110492;1238;68424;-68
2023/07/11 01:04:56;;;;;;;6.50;5.70;;;;;;;14.62;99.78;97386.48;110410;1242;68454;-68
2023/07/11 01:07:31;;;;;;;6.10;5.20;;;;;;;14.59;100.00;97385.13;110347;1241;59751;-69
2023/07/11 01:10:02;;;;;;;6.90;5.70;;;;;;;14.59;100.00;97387.81;110199;1244;59696;-69
2023/07/11 01:12:43;;;;;;;6.90;5.10;;;;;;;14.58;100.00;97384.58;110502;1244;70416;-69
2023/07/11 01:15:14;;;;;;;6.20;5.50;;;;;;;14.57;100.00;97384.48;110406;1240;69280;-69
2023/07/11 01:17:46;;;;;;;6.50;5.50;;;;;;;14.54;100.00;97385.10;110508;1243;69228;-68
2023/07/11 01:20:22;;;;;;;6.50;5.50;;;;;;;14.51;100.00;97381.70;110500;1241;59734;-68
2023/07/11 01:22:57;;;;;;;7.20;6.10;;;;;;;14.48;100.00;97385.06;110484;1240;59672;-68
2023/07/11 01:25:36;;;;;;;6.70;5.90;;;;;;;14.44;100.00;97378.20;110449;1241;71466;-68
2023/07/11 01:28:08;;;;;;;6.40;5.70;;;;;;;14.43;100.00;97379.58;110507;1241;68502;-68
2023/07/11 01:30:40;;;;;;;7.70;5.50;;;;;;;14.42;100.00;97373.67;110611;1241;68379;-68
2023/07/11 01:33:12;;;;;;;6.80;5.70;;;;;;;14.42;100.00;97372.23;110204;1244;59738;-68
2023/07/11 01:35:43;;;;;;;8.00;5.70;;;;;;;14.43;100.00;97373.91;110203;1241;59694;-68
2023/07/11 01:38:21;;;;;;;7.00;4.70;;;;;;;14.42;100.00;97374.19;110272;1242;71432;-70
2023/07/11 01:40:53;;;;;;;8.00;5.90;;;;;;;14.42;100.00;97376.48;110474;1238;68563;-69
2023/07/11 01:43:29;;;;;;;7.70;5.60;;;;;;;14.42;100.00;97378.40;110292;1238;68838;-69
2023/07/11 01:46:01;;;;;;;7.10;5.50;;;;;;;14.41;100.00;97380.40;110594;1241;59661;-69
2023/07/11 01:48:31;;;;;;;7.50;5.90;;;;;;;14.40;100.00;97378.96;110246;1242;59798;-69
2023/07/11 01:51:05;;;;;;;8.30;6.50;;;;;;;14.37;100.00;97382.34;110147;1244;71404;-69
2023/07/11 01:53:38;;;;;;;7.50;6.70;;;;;;;14.37;100.00;97383.40;110519;1238;68308;-69
2023/07/11 01:56:07;;;;;;;;;;;;;;;14.36;100.00;97383.52;110633;1241;69344;-68
2023/07/11 01:58:38;;;;;;;5.60;4.90;;;;;;;14.34;100.00;97383.18;110569;1241;59758;-68
2023/07/11 02:01:08;;;;;;;6.80;5.60;;;;;;;14.32;100.00;97382.32;110219;1246;59638;-68
2023/07/11 02:03:39;;;;;;;6.40;5.20;;;;;;;14.31;100.00;97380.66;110494;1241;69813;-68
2023/07/11 02:06:11;;;;;;;6.60;5.20;;;;;;;14.29;100.00;97377.48;110423;1238;68357;-68
2023/07/11 02:08:42;;;;;;;7.20;6.00;;;;;;;14.27;100.00;97382.48;110454;1242;68553;-69
2023/07/11 02:11:16;;;;;;;6.20;5.20;;;;;;;14.25;100.00;97384.75;110530;1241;59705;-68
2023/07/11 02:13:47;;;;;;;7.80;5.70;;;;;;;14.25;100.00;97387.80;110238;1242;59700;-68
2023/07/11 02:16:17;;;;;;;7.30;5.80;;;;;;;14.24;100.00;97384.38;110407;1238;70611;-69
2023/07/11 02:18:49;;;;;;;7.90;5.80;;;;;;;14.23;100.00;97388.95;110444;1242;69265;-69
2023/07/11 02:21:22;;;;;;;6.40;5.40;;;;;;;14.23;100.00;97389.30;110400;1241;69485;-70
2023/07/11 02:23:55;;;;;;;7.90;6.10;;;;;;;14.23;100.00;97391.63;110399;1241;59721;-70
2023/07/11 02:26:28;;;;;;;7.10;6.40;;;;;;;14.24;100.00;97399.11;110349;1241;59737;-68
2023/07/11 02:29:04;;;;;;;7.70;6.10;;;;;;;14.24;100.00;97402.63;110364;1241;71345;-69
2023/07/11 02:31:38;;;;;;;8.10;6.30;;;;;;;14.24;100.00;97408.34;110415;1241;69259;-68
2023/07/11 02:34:14;;;;;;;7.40;6.40;;;;;;;14.27;100.00;97406.83;110476;1243;69219;-68
2023/07/11 02:36:45;;;;;;;7.30;5.70;;;;;;;14.31;100.00;97398.98;110396;1241;59678;-68
2023/07/11 02:39:15;;;;;;;8.10;5.90;;;;;;;14.36;100.00;97391.91;110460;1241;59637;-69
2023/07/11 02:41:44;;;;;;;8.00;6.50;;;;;;;14.42;100.00;97388.19;110493;1241;71385;-69
2023/07/11 02:44:13;;;;;;;7.00;6.30;;;;;;;14.45;100.00;97386.38;110377;1241;69669;-69
2023/07/11 02:46:42;;;;;;;9.10;5.80;;;;;;;14.44;100.00;97386.51;110457;1240;68754;-69
2023/07/11 02:49:12;;;;;;;7.80;5.80;;;;;;;14.44;100.00;97384.86;110443;1241;59673;-69
2023/07/11 02:51:49;;;;;;;7.30;6.30;;;;;;;14.46;100.00;97382.73;110409;1241;59684;-69
2023/07/11 02:54:18;;;;;;;7.00;6.00;;;;;;;14.48;100.00;97379.61;110566;1238;70553;-69
2023/07/11 02:56:51;;;;;;;8.70;6.40;;;;;;;14.49;100.00;97380.75;110552;1238;68453;-69
2023/07/11 02:59:23;;;;;;;9.50;6.90;;;;;;;14.49;100.00;97386.52;110459;1240;69397;-69
2023/07/11 03:01:51;;;;;;;;;;;;;;;14.48;100.00;97392.13;110554;1238;59672;-69
2023/07/11 03:04:20;;;;;;;7.80;6.10;;;;;;;14.45;100.00;97396.77;110544;1239;59701;-69
2023/07/11 03:06:56;;;;;;;9.30;6.80;;;;;;;14.44;100.00;97391.52;110543;1242;70519;-69
2023/07/11 03:09:32;;;;;;;9.40;6.60;;;;;;;14.45;100.00;97399.14;110491;1238;69178;-69
2023/07/11 03:12:04;;;;;;;7.20;6.00;;;;;;;14.47;100.00;97398.48;110622;1239;69545;-69
2023/07/11 03:14:33;;;;;;;6.70;5.80;;;;;;;14.50;100.00;97392.95;110626;1241;59744;-69
2023/07/11 03:17:04;;;;;;;7.30;6.40;;;;;;;14.54;100.00;97392.64;110525;1241;59769;-69
2023/07/11 03:19:33;;;;;;;;;;;;;;;14.59;100.00;97389.77;110549;1238;70490;-69
2023/07/11 03:22:02;;;;;;;7.50;6.50;;;;;;;14.63;100.00;97391.13;110571;1240;69265;-69
2023/07/11 03:24:36;;;;;;;7.10;6.30;;;;;;;14.68;100.00;97392.38;110474;1241;68306;-69
2023/07/11 03:27:06;;;;;;;8.70;7.10;;;;;;;14.76;100.00;97399.36;110519;1240;59675;-69
2023/07/11 03:29:37;;;;;;;8.60;6.40;;;;;;;14.86;100.00;97402.02;110647;1238;59697;-69
2023/07/11 03:32:11;;;;;;;7.00;6.00;;;;;;;14.96;100.00;97396.00;110595;1240;70503;-69
2023/07/11 03:34:41;;;;;;;6.70;6.00;;;;;;;15.09;100.00;97388.20;110583;1241;69363;-69
2023/07/11 03:37:22;;;;;;;9.90;6.70;;;;;;;15.19;100.00;97389.66;110507;1241;69559;-70
2023/07/11 03:39:54;;;;;;;7.10;6.40;;;;;;;15.27;100.00;97388.41;110378;1240;60085;-69
2023/07/11 03:42:24;;;;;;;8.10;6.30;;;;;;;15.40;100.00;97388.83;110504;1238;59750;-68
2023/07/11 03:44:56;;;;;;;7.40;6.60;;;;;;;15.55;100.00;97387.98;110408;1240;71303;-69
2023/07/11 03:47:25;;;;;;;8.20;7.30;;;;;;;15.71;100.00;97384.75;110600;1237;68449;-69
2023/07/11 03:49:55;;;;;;;11.70;7.80;;;;;;;15.86;100.00;97378.45;110297;1241;68919;-68
2023/07/11 03:52:23;;;;;;;;;;;;;;;15.94;100.00;97372.69;110284;1242;59846;-69
2023/07/11 03:54:52;;;;;;;9.50;6.90;;;;;;;16.05;100.00;97376.95;110197;1240;59790;-69
2023/07/11 03:57:20;;;;;;;8.10;7.30;;;;;;;16.14;100.00;97373.07;110421;1241;70509;-69
2023/07/11 03:59:47;;;;;;;8.00;7.00;;;;;;;16.24;100.00;97365.08;110516;1241;69102;-69
2023/07/11 04:02:18;;;;;;;9.40;7.30;;;;;;;16.35;100.00;97362.62;109991;1241;69369;-69
2023/07/11 04:04:47;;;;;;;8.60;7.40;;;;;;;16.42;100.00;97365.23;110450;1241;59817;-69
2023/07/11 04:07:15;;;;;;;8.30;6.80;;;;;;;16.52;100.00;97364.66;110217;1242;59700;-69
2023/07/11 04:09:44;;;;;;;7.80;7.00;;;;;;;16.65;100.00;97366.71;110210;1245;70280;-69
2023/07/11 04:12:13;;;;;;;8.30;7.40;;;;;;;16.77;100.00;97360.84;109989;1241;826011;-69
2023/07/11 04:14:42;;;;;;;8.40;7.50;;;;;;;16.86;100.00;97350.65;110275;1244;69577;-69
2023/07/11 04:17:10;;;;;;;8.20;7.20;;;;;;;16.88;100.00;97346.19;110174;1244;59756;-69
2023/07/11 04:19:38;;;;;;;8.00;7.10;;;;;;;16.97;100.00;97338.21;110446;1243;59620;-68
2023/07/11 04:22:07;;;;;;;9.60;7.40;;;;;;;17.08;100.00;97343.31;110305;1244;70637;-69
2023/07/11 04:24:36;;;;;;;;;;;;;;;17.10;100.00;97354.02;110408;1241;69198;-69
2023/07/11 04:27:05;;;;;;;8.50;7.30;;;;;;;17.07;100.00;97349.05;110614;1238;69330;-69
2023/07/11 04:29:33;;;;;;;8.40;7.10;;;;;;;17.12;100.00;97345.58;110607;1241;59679;-69
2023/07/11 04:32:02;;;;;;;8.30;6.40;;;;;;;17.16;100.00;97355.19;110585;1244;59741;-69
2023/07/11 04:34:30;;;;;;;7.80;7.00;;;;;;;17.18;100.00;97358.60;110515;1243;71432;-69
2023/07/11 04:36:58;;;;;;;9.50;7.30;;;;;;;17.22;100.00;97357.40;110352;1240;69751;-69
2023/07/11 04:39:26;;;;;;;7.70;6.90;;;;;;;17.25;99.66;97357.47;110540;1240;69283;-69
2023/07/11 04:41:55;;;;;;;7.80;6.40;;;;;;;17.24;100.00;97357.82;110418;1237;59727;-69
2023/07/11 04:44:24;;;;;;;8.10;6.80;;;;;;;17.29;99.90;97358.95;110465;1243;59660;-69
2023/07/11 04:46:54;;;;;;;9.00;6.20;;;;;;;17.31;99.55;97372.48;110327;1241;71289;-69
2023/07/11 04:49:22;;;;;;;7.10;6.00;;;;;;;17.30;98.93;97379.06;110642;1241;69878;-69
2023/07/11 04:51:53;;;;;;;7.40;6.60;;;;;;;17.40;99.84;97377.25;110608;1248;70221;-69
2023/07/11 04:54:22;;;;;;;7.20;6.50;;;;;;;17.47;100.00;97372.67;110533;1238;59734;-69
2023/07/11 04:56:58;;;;;;;8.50;6.40;;;;;;;17.51;99.92;97368.73;110555;1240;59676;-69
2023/07/11 04:59:26;;;;;;;6.20;5.60;;;;;;;17.57;99.29;97370.75;110348;1241;71401;-70
2023/07/11 05:01:55;;;;;;;7.40;6.60;;;;;;;17.67;97.59;97372.17;110444;1241;69242;-70
2023/07/11 05:04:24;;;;;;;9.10;6.60;;;;;;;17.80;96.54;97374.07;110449;1238;69308;-68
2023/07/11 05:06:52;;;;;;;7.20;6.50;;;;;;;17.97;95.97;97366.52;110460;1241;59740;-70
2023/07/11 05:09:19;;;;;;;7.40;6.10;;;;;;;18.05;94.91;97371.24;110512;1241;59691;-69
2023/07/11 05:11:48;;;;;;;8.10;5.80;;;;;;;18.14;94.56;97369.14;110540;1241;71966;-69
2023/07/11 05:14:16;;;;;;;9.40;6.20;;;;;;;18.19;93.44;97362.60;110594;1241;69268;-69
2023/07/11 05:16:44;;;;;;;6.70;6.00;;;;;;;18.25;93.21;97353.80;110496;1241;69836;-69
2023/07/11 05:19:13;;;;;;;8.90;6.10;;;;;;;18.27;93.13;97353.21;110658;1241;59702;-69
2023/07/11 05:21:41;;;;;;;6.70;6.00;;;;;;;18.28;93.49;97352.65;110564;1239;59716;-69
2023/07/11 05:24:09;;;;;;;7.50;6.00;;;;;;;18.32;93.21;97354.52;110612;1239;71977;-69
2023/07/11 05:26:38;;;;;;;7.60;6.40;;;;;;;18.39;93.72;97355.39;110443;1241;70149;-69
2023/07/11 05:29:07;;;;;;;6.70;6.00;;;;;;;18.50;92.49;97358.05;110384;1241;69313;-68
2023/07/11 05:31:35;;;;;;;6.00;5.40;;;;;;;18.66;91.83;97361.57;110386;1241;59769;-69
2023/07/11 05:34:03;;;;;;;7.40;5.90;;;;;;;18.80;89.27;97365.52;110556;1238;59709;-68
2023/07/11 05:36:35;;;;;;;6.60;5.30;;;;;;;18.96;89.34;97366.64;110503;1238;70937;-69
2023/07/11 05:39:11;;;;;;;6.00;5.40;;;;;;;19.10;88.71;97366.91;110588;1242;69091;-69
2023/07/11 05:41:44;;;;;;;6.30;5.40;;;;;;;19.20;88.30;97366.30;110482;1241;69244;-69
2023/07/11 05:44:14;;;;;;;6.60;5.90;;;;;;;19.27;87.66;97370.66;110424;1242;59672;-69
2023/07/11 05:46:42;;;;;;;6.70;5.60;;;;;;;19.31;85.56;97373.73;110459;1238;59676;-70
2023/07/11 05:49:15;;;;;;;6.40;5.60;;;;;;;19.26;85.12;97375.19;110573;1238;70991;-70
2023/07/11 05:51:43;;;;;;;6.90;5.90;;;;;;;19.28;85.54;97378.34;110297;1242;69796;-68
2023/07/11 05:54:11;;;;;;;7.30;5.30;;;;;;;19.27;86.61;97380.73;110556;1241;69858;-70
2023/07/11 05:56:41;;;;;;;6.70;6.00;;;;;;;19.32;87.14;97383.67;110467;1238;59779;-70
2023/07/11 05:59:09;;;;;;;6.80;5.40;;;;;;;19.35;87.49;97392.05;110581;1239;59677;-70
2023/07/11 06:01:37;;;;;;;6.70;6.00;;;;;;;19.34;89.18;97390.91;110460;1241;71883;-71
2023/07/11 06:04:11;;;;;;;7.80;6.80;;;;;;;19.28;90.93;97384.83;110540;1240;68572;-71
2023/07/11 06:06:41;;;;;;;8.80;7.70;;;;;;;19.22;89.80;97380.39;110433;1240;68537;-69
2023/07/11 06:09:12;;;;;;;8.10;7.30;;;;;;;19.18;89.00;97378.17;110468;1241;59665;-70
2023/07/11 06:11:40;;;;;;;7.80;6.80;;;;;;;19.14;88.91;97376.86;110485;1238;59689;-69
2023/07/11 06:14:09;;;;;;;7.00;6.30;;;;;;;19.11;89.18;97369.96;110425;1238;71759;-66
2023/07/11 06:16:39;;;;;;;7.70;6.90;;;;;;;19.09;89.88;97362.93;110470;1240;69919;-69
2023/07/11 06:19:07;;;;;;;8.20;6.70;;;;;;;19.11;89.62;97359.53;110569;1238;69252;-70
2023/07/11 06:21:36;;;;;;;9.20;7.10;;;;;;;19.14;90.12;97358.11;110659;1241;59788;-70
2023/07/11 06:24:04;;;;;;;9.20;6.90;;;;;;;19.15;91.71;97356.68;110413;1240;60079;-68
2023/07/11 06:26:33;;;;;;;8.60;7.60;;;;;;;19.20;91.19;97355.31;110446;1238;71295;-70
2023/07/11 06:29:01;;;;;;;8.50;7.70;;;;;;;19.23;91.61;97348.45;110555;1239;69277;-67
2023/07/11 06:31:29;;;;;;;8.40;7.20;;;;;;;19.38;91.94;97347.54;110472;1240;69154;-67
2023/07/11 06:33:57;;;;;;;8.70;7.80;;;;;;;19.73;90.94;97346.73;110283;1238;59748;-67
2023/07/11 06:36:25;;;;;;;8.20;6.70;;;;;;;20.03;90.56;97351.53;110475;1241;59658;-68
2023/07/11 06:38:53;;;;;;;9.80;7.00;;;;;;;20.29;88.46;97347.70;110418;1238;70940;-68
2023/07/11 06:41:22;;;;;;;7.50;6.70;;;;;;;20.45;85.37;97344.31;110409;1242;69853;-68
2023/07/11 06:43:50;;;;;;;8.40;7.00;;;;;;;20.65;84.51;97344.48;110534;1238;69200;-67
2023/07/11 06:46:18;;;;;;;9.60;6.60;;;;;;;20.83;81.40;97342.59;110557;1238;59693;-67
2023/07/11 06:48:46;;;;;;;7.00;6.30;;;;;;;21.05;80.14;97340.48;110494;1240;59614;-66
2023/07/11 06:51:15;;;;;;;8.40;5.80;;;;;;;21.34;80.11;97338.39;110338;1241;71940;-67
2023/07/11 06:53:43;;;;;;;6.70;5.90;;;;;;;21.65;75.85;97338.61;110223;1242;68392;-69
2023/07/11 06:56:10;;;;;;;6.40;5.70;;;;;;;22.04;75.66;97342.22;110521;1240;69743;-67
2023/07/11 06:58:39;;;;;;;7.60;5.80;;;;;;;22.55;71.04;97341.89;110554;1240;59722;-69
2023/07/11 07:01:07;;;;;;;6.00;5.40;;;;;;;22.83;70.29;97346.08;110487;1242;59689;-67
2023/07/11 07:03:46;;;;;;;6.60;5.20;;;;;;;23.35;71.06;97352.87;110420;1241;71395;-68
2023/07/11 07:06:14;;;;;;;6.30;5.70;;;;;;;23.59;67.84;97350.92;110304;1241;69259;-67
2023/07/11 07:08:42;;;;;;;8.00;5.40;;;;;;;23.50;68.00;97346.57;110392;1240;68554;-68
2023/07/11 07:11:10;;;;;;;6.50;5.70;;;;;;;23.50;67.53;97347.55;110360;1239;59732;-67
2023/07/11 07:13:38;;;;;;;10.80;6.00;;;;;;;23.43;68.07;97349.56;110463;1241;59601;-70
2023/07/11 07:16:18;;;;;;;6.80;5.30;;;;;;;23.41;69.31;97344.38;110235;1240;71981;-70
2023/07/11 07:18:46;;;;;;;6.30;4.60;;;;;;;23.51;69.54;97340.09;110429;1241;68710;-70
2023/07/11 07:21:15;;;;;;;6.60;5.20;;;;;;;23.75;66.41;97331.69;110364;1242;69591;-69
2023/07/11 07:23:43;;;;;;;8.20;5.70;;;;;;;24.15;66.50;97327.45;110387;1238;59692;-69
2023/07/11 07:26:13;;;;;;;6.10;5.50;;;;;;;24.58;64.45;97321.45;110419;1240;59633;-69
2023/07/11 07:28:40;;;;;;;7.10;5.30;;;;;;;24.98;63.02;97325.92;110504;1238;71456;-69
2023/07/11 07:31:09;;;;;;;6.50;5.50;;;;;;;25.40;61.48;97339.40;110462;1241;69021;-69
2023/07/11 07:33:37;;;;;;;6.20;4.90;;;;;;;25.45;61.15;97336.80;110385;1241;69886;-69
2023/07/11 07:36:06;;;;;;;7.50;4.60;;;;;;;25.41;58.81;97331.41;110345;1241;59707;-69
2023/07/11 07:38:35;;;;;;;6.70;5.50;;;;;;;25.45;59.80;97331.73;110470;1240;59637;-69
2023/07/11 07:41:05;;;;;;;5.70;4.60;;;;;;;26.02;59.13;97333.28;110530;1242;71379;-69
2023/07/11 07:43:36;;;;;;;4.90;4.00;;;;;;;26.49;57.32;97331.09;110472;1243;70159;-71
2023/07/11 07:46:07;;;;;;;6.70;5.10;;;;;;;26.42;54.15;97334.17;110493;1238;69386;-70
2023/07/11 07:48:34;;;;;;;;;;;;;;;26.91;55.18;97327.82;110408;1242;59671;-71
2023/07/11 07:51:11;;;;;;;4.90;4.40;;;;;;;27.29;53.69;97327.34;110620;1241;59622;-70
2023/07/11 07:53:39;;;;;;;5.80;4.40;;;;;;;27.39;52.85;97321.27;110462;1239;71405;-71
2023/07/11 07:56:08;;;;;;;5.80;4.50;;;;;;;27.26;52.57;97311.07;110613;1243;68498;-70
2023/07/11 07:58:37;;;;;;;5.60;5.00;;;;;;;27.28;51.98;97307.61;110537;1245;69700;-68
2023/07/11 08:01:13;;;;;;;7.80;3.90;;;;;;;27.21;51.44;97304.16;110537;1238;59729;-71
2023/07/11 08:03:41;;;;;;;6.20;4.60;;;;;;;27.36;51.59;97315.11;110497;1238;59751;-71
2023/07/11 08:06:11;;;;;;;5.40;4.90;;;;;;;27.41;50.72;97327.45;110482;1241;71317;-69
2023/07/11 08:08:43;;;;;;;5.00;4.30;;;;;;;27.10;49.46;97339.77;110567;1239;69655;-69
2023/07/11 08:11:12;;;;;;;4.90;4.40;;;;;;;26.59;49.52;97355.89;110602;1241;69604;-69
2023/07/11 08:13:40;;;;;;;;;;;;;;;25.99;50.94;97364.35;110527;1238;59773;-69
2023/07/11 08:16:27;;;;;;;5.10;4.30;;;;;;;25.55;52.75;97362.31;110386;1241;59630;-70
2023/07/11 08:19:06;;;;;;;4.60;3.90;;;;;;;25.51;54.81;97367.09;110489;1238;72023;-70
2023/07/11 08:21:36;;;;;;;5.20;4.60;;;;;;;25.32;55.56;97376.31;110558;1241;68129;-70
2023/07/11 08:24:06;;;;;;;6.10;5.10;;;;;;;25.13;57.14;97386.01;110550;1241;69870;-70
2023/07/11 08:26:34;;;;;;;6.00;4.80;;;;;;;24.61;61.84;97382.92;110537;1240;59683;-70
2023/07/11 08:29:02;;;;;;;7.40;5.80;;;;;;;24.21;64.50;97362.33;110419;1241;59688;-70
2023/07/11 08:31:43;;;;;;;6.50;5.80;;;;;;;23.82;67.73;97336.83;110357;1238;71220;-69
2023/07/11 08:34:11;;;;;;;7.20;5.60;;;;;;;23.65;72.00;97341.27;110576;1238;69134;-69
2023/07/11 08:47:47;;;;;;;6.40;5.80;;;;;;;25.01;70.18;97348.34;107222;1272;609657;-69
2023/07/11 08:50:23;;;;;;;7.30;5.70;;;;;;;25.20;66.86;97354.05;109375;1248;380620;-70
2023/07/11 08:53:02;;;;;;;6.10;5.30;;;;;;;25.07;67.41;97357.40;109671;1249;57792;-67
2023/07/11 08:55:35;;;;;;;6.50;5.50;;;;;;;24.95;66.74;97355.73;109665;1248;68547;-70
2023/07/11 08:58:11;;;;;;;6.50;5.80;;;;;;;24.63;67.60;97361.48;109807;1248;69343;-70
2023/07/11 09:00:47;;;;;;;6.10;4.30;;;;;;;24.43;68.88;97382.83;109902;1244;69705;-68
2023/07/11 09:03:30;;;;;;;7.20;6.50;;;;;;;24.20;68.78;97427.31;109782;1244;57715;-68
2023/07/11 09:06:06;;;;;;;9.60;6.60;;;;;;;23.75;72.38;97470.75;109738;1245;58041;-70
2023/07/11 09:08:41;;;;;;;9.70;6.70;;;;;;;23.14;77.31;97458.84;109773;1245;69581;-69
2023/07/11 09:11:51;;;;;;;9.60;6.10;;;;;;;22.48;86.46;97451.42;109894;1248;69242;-69
2023/07/11 09:14:48;;;;;;;9.30;7.10;;;;;;;21.95;88.52;97443.95;109427;1254;69864;-68
2023/07/11 09:17:29;;;;;;;10.80;9.20;;;;;;;21.54;91.40;97426.14;109823;1248;58108;-70
2023/07/11 09:20:35;;;;;;;10.50;8.70;;;;;;;21.21;92.99;97423.65;109753;1245;58118;-69
2023/07/11 09:23:09;;;;;;;9.30;7.60;;;;;;;20.85;99.82;97419.85;109802;1245;67917;-69
2023/07/11 09:25:41;;;;;;;8.10;7.30;;;;;;;20.84;94.46;97404.39;109741;1248;69904;-69
2023/07/11 09:28:24;;;;;;;8.30;7.00;;;;;;;20.79;95.35;97400.60;109793;1249;69861;-70
2023/07/11 09:31:03;;;;;;;10.10;9.00;;;;;;;20.81;99.88;97392.52;109846;1245;58080;-68
2023/07/11 09:33:37;;;;;;;7.70;6.80;;;;;;;20.86;95.84;97393.21;109776;1246;58063;-70
2023/07/11 09:36:21;;;;;;;7.00;6.40;;;;;;;20.91;92.43;97385.90;109735;1244;68821;-69
2023/07/11 09:38:58;;;;;;;8.60;6.10;;;;;;;20.93;93.08;97396.12;109914;1248;69125;-68
2023/07/11 09:41:56;;;;;;;7.70;7.00;;;;;;;20.89;93.84;97396.69;109882;1245;69196;-67
2023/07/11 09:44:25;;;;;;;7.80;6.10;;;;;;;20.83;92.08;97391.64;109844;1249;58141;-68
2023/07/11 09:46:54;;;;;;;6.60;5.90;;;;;;;20.80;90.57;97383.92;109752;1249;58081;-70
2023/07/11 09:49:28;;;;;;;7.80;7.00;;;;;;;20.72;95.87;97381.77;109754;1249;69219;-68
2023/07/11 09:52:03;;;;;;;7.00;6.20;;;;;;;20.61;98.54;97380.04;109791;1248;69054;-67
2023/07/11 09:54:44;;;;;;;6.80;5.50;;;;;;;20.72;93.69;97381.31;109834;1248;69893;-69
2023/07/11 09:57:32;;;;;;;6.60;6.00;;;;;;;21.00;96.38;97380.85;109881;1245;58113;-69
2023/07/11 10:00:05;;;;;;;7.20;5.70;;;;;;;21.48;92.27;97380.55;109770;1245;58089;-69
2023/07/11 10:02:36;;;;;;;9.20;6.80;;;;;;;22.19;91.43;97379.89;109719;1248;69756;-69
2023/07/11 10:05:06;;;;;;;7.00;6.30;;;;;;;22.80;92.09;97373.67;109699;1248;69818;-68
2023/07/11 10:07:36;;;;;;;7.40;6.40;;;;;;;23.41;92.53;97368.33;109715;1247;69781;-68
2023/07/11 10:10:13;;;;;;;7.30;6.30;;;;;;;24.00;84.92;97370.64;109854;1248;58488;-68
2023/07/11 10:12:43;;;;;;;6.90;6.20;;;;;;;24.44;84.43;97363.99;109840;1248;58098;-69
2023/07/11 10:15:15;;;;;;;6.50;5.90;;;;;;;24.89;83.23;97360.58;109890;1247;70741;-71
2023/07/11 10:17:45;;;;;;;6.50;5.80;;;;;;;25.45;79.66;97358.95;109785;1245;68518;-70
2023/07/11 10:20:20;;;;;;;7.50;6.60;;;;;;;25.69;74.57;97360.29;109927;1245;68455;-71
2023/07/11 10:22:53;;;;;;;7.40;5.90;;;;;;;26.04;75.48;97361.95;109874;1245;58469;-69
2023/07/11 10:25:28;;;;;;;6.80;5.60;;;;;;;26.29;73.04;97364.17;110147;1243;58112;-68
2023/07/11 10:28:08;;;;;;;5.90;5.30;;;;;;;26.53;72.74;97357.45;110107;1241;70539;-71
2023/07/11 10:30:38;;;;;;;5.90;5.30;;;;;;;26.60;68.14;97352.02;110186;1245;69788;-70
2023/07/11 10:33:19;;;;;;;7.10;5.90;;;;;;;26.65;68.79;97350.55;110124;1241;69197;-69
2023/07/11 10:36:03;;;;;;;6.30;5.70;;;;;;;26.41;61.99;97349.50;110145;1244;58094;-69
2023/07/11 10:38:56;;;;;;;7.40;5.80;;;;;;;26.61;60.64;97339.84;110149;1246;58112;-71
2023/07/11 10:41:51;;;;;;;5.60;5.10;;;;;;;26.70;64.25;97331.58;110167;1244;69196;-70
2023/07/11 10:44:41;;;;;;;6.10;5.50;;;;;;;27.13;64.75;97326.06;110151;1244;69244;-69
2023/07/11 10:47:10;;;;;;;6.40;5.80;;;;;;;27.39;58.01;97325.23;110126;1241;69886;-69
2023/07/11 10:49:48;;;;;;;6.00;5.40;;;;;;;27.40;57.63;97323.81;110140;1241;58152;-69
2023/07/11 10:52:23;;;;;;;6.60;5.50;;;;;;;27.69;58.63;97326.06;110112;1245;58075;-69
2023/07/11 10:55:10;;;;;;;5.80;5.20;;;;;;;27.83;57.12;97326.40;110111;1244;70373;-71
2023/07/11 10:57:52;;;;;;;7.10;5.50;;;;;;;27.83;57.16;97330.48;110159;1245;69589;-71
2023/07/11 11:01:06;;;;;;;5.90;5.30;;;;;;;27.84;59.42;97328.89;110157;1244;69184;-70
2023/07/11 11:03:48;;;;;;;5.90;5.20;;;;;;;27.91;59.05;97331.64;109789;1252;58080;-71
2023/07/11 11:06:50;;;;;;;6.70;6.00;;;;;;;27.99;56.55;97330.06;110140;1243;58134;-69
2023/07/11 11:09:40;;;;;;;6.00;5.40;;;;;;;27.74;56.49;97329.78;110046;1245;69829;-69
2023/07/11 11:12:21;;;;;;;6.60;6.00;;;;;;;27.66;56.18;97328.89;110143;1241;69332;-69
2023/07/11 11:15:05;;;;;;;6.50;5.90;;;;;;;27.79;55.58;97330.27;110118;1245;70343;-71
2023/07/11 11:18:17;;;;;;;5.70;5.10;;;;;;;28.38;58.06;97326.90;110194;1243;58179;-71
2023/07/11 11:20:58;;;;;;;6.80;6.10;;;;;;;28.70;57.84;97321.73;109899;1245;58016;-70
2023/07/11 11:24:07;;;;;;;7.00;6.30;;;;;;;28.74;56.87;97321.02;110119;1244;69754;-70
2023/07/11 11:26:59;;;;;;;6.10;5.50;;;;;;;29.17;54.46;97315.80;110190;1241;69289;-72
2023/07/11 11:29:57;;;;;;;6.40;5.70;;;;;;;29.60;51.36;97317.75;110199;1244;69193;-71
2023/07/11 11:32:38;;;;;;;6.30;5.70;;;;;;;29.65;50.83;97310.01;110200;1244;58066;-72
2023/07/11 11:35:26;;;;;;;6.50;5.70;;;;;;;29.60;50.46;97310.58;110292;1241;58103;-70
2023/07/11 11:38:14;;;;;;;6.00;5.40;;;;;;;29.76;50.27;97305.77;110305;1241;69075;-71
2023/07/11 11:40:49;;;;;;;6.10;5.50;;;;;;;29.62;50.67;97301.64;110291;1245;69405;-72
2023/07/11 11:43:19;;;;;;;5.70;4.90;;;;;;;29.40;47.86;97300.20;110217;1241;69860;-72
2023/07/11 11:46:02;;;;;;;6.30;5.20;;;;;;;29.74;49.14;97298.14;110177;1241;58090;-72
2023/07/11 11:48:37;;;;;;;5.80;5.30;;;;;;;30.02;49.19;97296.40;110115;1244;58063;-72
2023/07/11 11:51:15;;;;;;;7.20;6.10;;;;;;;30.23;49.42;97300.15;110178;1244;69926;-72
2023/07/11 11:54:01;;;;;;;6.40;5.40;;;;;;;30.46;49.48;97292.98;110196;1243;69677;-72
2023/07/11 11:56:40;;;;;;;6.40;5.80;;;;;;;30.63;48.43;97293.08;110157;1241;69240;-71
2023/07/11 11:59:15;;;;;;;;;;;;;;;30.68;48.20;97291.67;110191;1241;58103;-71
2023/07/11 12:01:47;;;;;;;6.30;5.70;;;;;;;30.84;48.58;97287.31;110162;1241;58075;-71
2023/07/11 12:04:29;;;;;;;6.30;5.70;;;;;;;30.84;46.37;97287.77;110173;1244;69769;-72